Time;durP1;ratioP1;P1;durP2;ratioP2;P2;SDS_P1;SDS_P2;PMS_P1;PMS_P2;Temp;Humidity;BMP_temperature;BMP_pressure;BME280_temperature;BME280_humidity;BME280_pressure;Samples;Min_cycle;Max_cycle;Signal;HPM_P1;HPM_P2
2021/12/23 00:01:18;;;;;;;;;;;21.70;49.30;;;;;;5078077;28;994;-39
2021/12/23 00:03:45;;;;;;;;;;;21.70;49.30;;;;;;5078706;28;1038;-39
2021/12/23 00:06:12;;;;;;;;;;;21.60;49.30;;;;;;5077632;28;1003;-38
2021/12/23 00:08:38;;;;;;;;;;;21.60;49.40;;;;;;5078573;28;983;-39
2021/12/23 00:11:05;;;;;;;;;;;21.60;49.40;;;;;;5077991;28;992;-39
2021/12/23 00:13:33;;;;;;;;;;;21.50;49.40;;;;;;5078061;28;1906;-39
2021/12/23 00:16:06;;;;;;;;;;;21.60;49.40;;;;;;5078497;28;1154;-39
2021/12/23 00:18:49;;;;;;;;;;;21.60;49.40;;;;;;5078601;28;932;-38
2021/12/23 00:24:00;;;;;;;;;;;21.60;49.40;;;;;;5078028;28;641;-38
2021/12/23 00:26:27;;;;;;;;;;;21.70;49.20;;;;;;5076448;28;984;-38
2021/12/23 00:28:54;;;;;;;;;;;21.80;49.10;;;;;;5077849;28;952;-39
2021/12/23 00:31:21;;;;;;;;;;;21.80;48.90;;;;;;5077721;28;1003;-39
2021/12/23 00:33:49;;;;;;;;;;;21.80;48.80;;;;;;5077763;28;1983;-39
2021/12/23 00:36:16;;;;;;;;;;;21.90;48.60;;;;;;5077690;28;1011;-37
2021/12/23 00:38:47;;;;;;;;;;;22.00;48.50;;;;;;5078137;28;984;-37
2021/12/23 00:41:14;;;;;;;;;;;22.00;49.60;;;;;;5077930;28;1002;-37
2021/12/23 00:43:41;;;;;;;;;;;22.00;48.50;;;;;;5078064;28;940;-37
2021/12/23 00:46:08;;;;;;;;;;;22.00;48.50;;;;;;5077813;28;951;-37
2021/12/23 00:48:35;;;;;;;;;;;22.00;48.50;;;;;;5077554;28;992;-35
2021/12/23 00:51:03;;;;;;;;;;;22.00;48.50;;;;;;5077500;28;999;-35
2021/12/23 00:53:36;;;;;;;;;;;22.00;48.50;;;;;;5077601;28;1989;-39
2021/12/23 00:56:04;;;;;;;;;;;22.00;48.50;;;;;;5077076;28;940;-39
2021/12/23 00:58:30;;;;;;;;;;;22.00;48.60;;;;;;5077324;28;1136;-38
2021/12/23 01:00:59;;;;;;;;;;;22.00;48.60;;;;;;5076936;28;1008;-39
2021/12/23 01:03:25;;;;;;;;;;;22.00;48.70;;;;;;5076776;28;1011;-38
2021/12/23 01:05:52;;;;;;;;;;;22.00;48.70;;;;;;5076872;28;977;-39
2021/12/23 01:08:20;;;;;;;;;;;22.00;48.70;;;;;;5077613;28;943;-39
2021/12/23 01:10:50;;;;;;;;;;;22.00;48.80;;;;;;5077007;28;972;-39
2021/12/23 01:13:18;;;;;;;;;;;22.00;48.90;;;;;;5077166;28;1979;-39
2021/12/23 01:16:00;;;;;;;;;;;22.00;48.90;;;;;;5077218;28;929;-40
2021/12/23 01:18:30;;;;;;;;;;;21.90;48.90;;;;;;5077093;28;991;-39
2021/12/23 01:21:03;;;;;;;;;;;21.90;48.90;;;;;;5077392;28;960;-39
2021/12/23 01:23:34;;;;;;;;;;;21.90;48.90;;;;;;5077546;27;919;-38
2021/12/23 01:26:01;;;;;;;;;;;21.90;48.90;;;;;;5077494;28;1102;-39
2021/12/23 01:28:28;;;;;;;;;;;21.90;48.90;;;;;;5076844;28;980;-39
2021/12/23 01:30:54;;;;;;;;;;;21.90;49.00;;;;;;5076978;28;958;-38
2021/12/23 01:33:22;;;;;;;;;;;21.90;48.90;;;;;;5076748;28;1976;-39
2021/12/23 01:35:50;;;;;;;;;;;21.80;49.00;;;;;;5077224;27;916;-39
2021/12/23 01:38:17;;;;;;;;;;;21.70;49.10;;;;;;5077006;28;1028;-39
2021/12/23 01:40:46;;;;;;;;;;;21.70;49.10;;;;;;5076520;27;994;-39
2021/12/23 01:43:13;;;;;;;;;;;21.70;50.30;;;;;;5076739;28;999;-37
2021/12/23 01:45:43;;;;;;;;;;;21.70;49.30;;;;;;5076733;28;1015;-39
2021/12/23 01:48:10;;;;;;;;;;;21.70;49.30;;;;;;5076528;28;972;-38
2021/12/23 01:50:39;;;;;;;;;;;21.70;49.20;;;;;;5076626;28;883;-39
2021/12/23 01:53:06;;;;;;;;;;;21.70;49.20;;;;;;5076210;28;1979;-40
2021/12/23 01:55:35;;;;;;;;;;;21.70;49.10;;;;;;5076275;28;1023;-38
2021/12/23 01:58:04;;;;;;;;;;;21.70;49.10;;;;;;5076162;28;1108;-39
2021/12/23 02:00:33;;;;;;;;;;;21.70;49.10;;;;;;5076650;28;984;-39
2021/12/23 02:03:00;;;;;;;;;;;21.70;49.10;;;;;;5076084;28;1247;-38
2021/12/23 02:05:27;;;;;;;;;;;21.70;49.10;;;;;;5076051;28;869;-39
2021/12/23 02:07:54;;;;;;;;;;;21.70;49.00;;;;;;5076603;28;1051;-40
2021/12/23 02:10:22;;;;;;;;;;;21.70;49.00;;;;;;5076391;27;959;-38
2021/12/23 02:12:49;;;;;;;;;;;21.70;48.90;;;;;;5075819;28;1997;-39
2021/12/23 02:15:18;;;;;;;;;;;21.80;49.00;;;;;;5075634;28;968;-39
2021/12/23 02:17:46;;;;;;;;;;;21.70;48.90;;;;;;5076133;28;1034;-39
2021/12/23 02:20:15;;;;;;;;;;;21.70;49.00;;;;;;5076269;28;1011;-39
2021/12/23 02:22:42;;;;;;;;;;;21.70;48.90;;;;;;5076215;28;992;-39
2021/12/23 02:25:09;;;;;;;;;;;21.80;48.80;;;;;;5076397;28;932;-38
2021/12/23 02:27:36;;;;;;;;;;;21.90;48.70;;;;;;5076258;28;1268;-39
2021/12/23 02:30:04;;;;;;;;;;;21.90;48.60;;;;;;5076169;28;1024;-39
2021/12/23 02:32:30;;;;;;;;;;;21.90;48.50;;;;;;5076382;28;923;-39
2021/12/23 02:34:57;;;;;;;;;;;21.90;48.50;;;;;;5075495;28;1964;-38
2021/12/23 02:37:25;;;;;;;;;;;21.90;48.40;;;;;;5076169;28;1019;-39
2021/12/23 02:39:52;;;;;;;;;;;21.90;48.30;;;;;;5075833;28;987;-38
2021/12/23 02:42:19;;;;;;;;;;;21.90;48.40;;;;;;5075545;28;975;-39
2021/12/23 02:44:46;;;;;;;;;;;21.90;48.50;;;;;;5075667;28;940;-37
2021/12/23 02:47:12;;;;;;;;;;;21.90;48.40;;;;;;5075706;28;1080;-39
2021/12/23 02:49:39;;;;;;;;;;;21.90;48.40;;;;;;5075755;28;956;-38
2021/12/23 02:52:06;;;;;;;;;;;21.90;48.40;;;;;;5075183;28;876;-39
2021/12/23 02:54:34;;;;;;;;;;;21.90;48.30;;;;;;5075859;28;1984;-39
2021/12/23 02:57:01;;;;;;;;;;;21.90;48.40;;;;;;5075364;28;1090;-39
2021/12/23 02:59:27;;;;;;;;;;;21.90;48.40;;;;;;5075261;28;971;-39
2021/12/23 03:01:54;;;;;;;;;;;21.90;48.40;;;;;;5075421;28;1007;-38
2021/12/23 03:04:21;;;;;;;;;;;22.00;48.40;;;;;;5075820;28;1009;-38
2021/12/23 03:06:48;;;;;;;;;;;22.00;48.40;;;;;;5075509;28;996;-39
2021/12/23 03:09:15;;;;;;;;;;;22.00;48.50;;;;;;5075394;28;980;-39
2021/12/23 03:11:43;;;;;;;;;;;21.90;48.50;;;;;;5075238;28;952;-38
2021/12/23 03:14:11;;;;;;;;;;;22.00;48.60;;;;;;5075173;28;1910;-39
2021/12/23 03:16:38;;;;;;;;;;;22.00;48.50;;;;;;5075455;28;1862;-37
2021/12/23 03:19:05;;;;;;;;;;;21.90;48.50;;;;;;5075285;28;964;-39
2021/12/23 03:21:32;;;;;;;;;;;21.90;48.60;;;;;;5075135;28;936;-39
2021/12/23 03:23:59;;;;;;;;;;;21.90;48.70;;;;;;5075093;28;1008;-38
2021/12/23 03:26:26;;;;;;;;;;;21.90;49.80;;;;;;5074826;28;1019;-39
2021/12/23 03:28:54;;;;;;;;;;;21.90;48.50;;;;;;5078342;28;1127;-40
2021/12/23 03:31:20;;;;;;;;;;;21.90;48.60;;;;;;5078761;28;980;-38
2021/12/23 03:33:47;;;;;;;;;;;21.90;48.70;;;;;;5079205;28;1975;-39
2021/12/23 03:36:14;;;;;;;;;;;21.90;48.70;;;;;;5078778;28;1054;-39
2021/12/23 03:38:40;;;;;;;;;;;21.90;48.60;;;;;;5078938;28;889;-39
2021/12/23 03:41:07;;;;;;;;;;;21.90;48.70;;;;;;5078452;27;947;-39
2021/12/23 03:43:34;;;;;;;;;;;21.90;48.70;;;;;;5078451;28;984;-38
2021/12/23 03:46:02;;;;;;;;;;;21.90;48.70;;;;;;5078262;28;968;-39
2021/12/23 03:48:29;;;;;;;;;;;21.90;48.60;;;;;;5077776;28;947;-38
2021/12/23 03:50:55;;;;;;;;;;;21.80;48.70;;;;;;5077941;28;986;-33
2021/12/23 03:53:22;;;;;;;;;;;21.80;48.80;;;;;;5078084;28;1901;-32
2021/12/23 03:55:49;;;;;;;;;;;21.70;48.90;;;;;;5078310;28;1031;-33
2021/12/23 03:58:16;;;;;;;;;;;21.70;49.10;;;;;;5078412;28;1187;-36
2021/12/23 04:00:43;;;;;;;;;;;21.70;49.00;;;;;;5078210;28;980;-37
2021/12/23 04:03:11;;;;;;;;;;;21.70;48.90;;;;;;5078554;28;945;-36
2021/12/23 04:05:38;;;;;;;;;;;21.70;49.10;;;;;;5078185;28;968;-36
2021/12/23 04:08:05;;;;;;;;;;;21.70;48.90;;;;;;5078271;28;909;-36
2021/12/23 04:10:32;;;;;;;;;;;21.70;48.90;;;;;;5078369;28;943;-36
2021/12/23 04:12:58;;;;;;;;;;;21.70;48.80;;;;;;5078635;28;994;-36
2021/12/23 04:15:25;;;;;;;;;;;21.70;48.70;;;;;;5077754;28;1905;-37
2021/12/23 04:17:52;;;;;;;;;;;21.70;48.90;;;;;;5078152;28;993;-35
2021/12/23 04:20:23;;;;;;;;;;;21.60;48.90;;;;;;5078058;28;1003;-37
2021/12/23 04:22:50;;;;;;;;;;;21.70;48.90;;;;;;5077869;28;990;-37
2021/12/23 04:25:19;;;;;;;;;;;21.60;48.90;;;;;;5078079;28;1007;-35
2021/12/23 04:27:47;;;;;;;;;;;21.70;48.90;;;;;;5078049;28;1012;-38
2021/12/23 04:30:14;;;;;;;;;;;21.60;48.90;;;;;;5077795;28;1016;-38
2021/12/23 04:32:41;;;;;;;;;;;21.60;48.80;;;;;;5077807;28;1771;-34
2021/12/23 04:35:08;;;;;;;;;;;21.60;48.80;;;;;;5077789;28;1906;-36
2021/12/23 04:37:36;;;;;;;;;;;21.70;48.80;;;;;;5077904;28;975;-37
2021/12/23 04:40:06;;;;;;;;;;;21.70;48.80;;;;;;5076061;28;999;-36
2021/12/23 04:42:32;;;;;;;;;;;21.80;48.70;;;;;;5078008;27;940;-35
2021/12/23 04:44:59;;;;;;;;;;;21.80;48.50;;;;;;5077381;28;911;-34
2021/12/23 04:47:26;;;;;;;;;;;21.90;48.50;;;;;;5077681;28;1011;-37
2021/12/23 04:49:53;;;;;;;;;;;21.90;48.30;;;;;;5077430;28;944;-36
2021/12/23 04:52:19;;;;;;;;;;;22.00;48.20;;;;;;5077425;28;992;-34
2021/12/23 04:54:47;;;;;;;;;;;22.00;48.10;;;;;;5077137;28;1906;-35
2021/12/23 04:57:14;;;;;;;;;;;22.00;48.00;;;;;;5077664;27;1081;-38
2021/12/23 04:59:41;;;;;;;;;;;22.00;48.00;;;;;;5076647;28;952;-37
2021/12/23 05:02:07;;;;;;;;;;;22.00;48.00;;;;;;5076866;28;968;-35
2021/12/23 05:04:34;;;;;;;;;;;22.00;48.00;;;;;;5077036;28;1023;-37
2021/12/23 05:07:01;;;;;;;;;;;22.00;48.00;;;;;;5077066;28;1084;-39
2021/12/23 05:09:28;;;;;;;;;;;22.10;48.10;;;;;;5076800;28;944;-39
2021/12/23 05:11:56;;;;;;;;;;;22.10;48.00;;;;;;5076751;28;996;-36
2021/12/23 05:14:23;;;;;;;;;;;22.10;49.20;;;;;;5076673;28;1902;-35
2021/12/23 05:16:49;;;;;;;;;;;22.00;48.00;;;;;;5076540;28;996;-37
2021/12/23 05:19:16;;;;;;;;;;;22.10;47.90;;;;;;5076429;28;992;-35
2021/12/23 05:21:43;;;;;;;;;;;22.10;47.60;;;;;;5076360;28;992;-36
2021/12/23 05:24:09;;;;;;;;;;;22.10;47.60;;;;;;5076366;28;983;-38
2021/12/23 05:26:36;;;;;;;;;;;22.10;47.70;;;;;;5076709;28;1043;-38
2021/12/23 05:29:04;;;;;;;;;;;22.10;47.80;;;;;;5076593;28;995;-37
2021/12/23 05:31:31;;;;;;;;;;;22.10;48.00;;;;;;5076697;28;979;-37
2021/12/23 05:33:58;;;;;;;;;;;22.10;47.80;;;;;;5076898;28;1894;-35
2021/12/23 05:36:25;;;;;;;;;;;22.10;47.80;;;;;;5075941;28;992;-35
2021/12/23 05:38:51;;;;;;;;;;;22.10;47.90;;;;;;5076265;28;899;-37
2021/12/23 05:41:18;;;;;;;;;;;22.10;48.10;;;;;;5076499;28;956;-36
2021/12/23 05:43:45;;;;;;;;;;;22.10;48.00;;;;;;5075963;28;940;-35
2021/12/23 05:46:13;;;;;;;;;;;22.00;48.00;;;;;;5075735;28;991;-36
2021/12/23 05:48:40;;;;;;;;;;;22.00;48.00;;;;;;5075948;28;988;-35
2021/12/23 05:51:06;;;;;;;;;;;22.00;48.00;;;;;;5075837;28;1004;-36
2021/12/23 05:53:33;;;;;;;;;;;22.10;48.00;;;;;;5075651;28;1000;-35
2021/12/23 05:56:00;;;;;;;;;;;22.00;48.00;;;;;;5075515;28;1902;-35
2021/12/23 05:58:26;;;;;;;;;;;22.00;48.00;;;;;;5075050;28;1159;-35
2021/12/23 06:00:54;;;;;;;;;;;22.00;47.90;;;;;;5076005;28;948;-34
2021/12/23 06:03:22;;;;;;;;;;;22.00;48.00;;;;;;5075565;28;976;-35
2021/12/23 06:05:48;;;;;;;;;;;21.80;48.00;;;;;;5075792;28;996;-35
2021/12/23 06:08:15;;;;;;;;;;;21.80;48.00;;;;;;5075140;28;1000;-36
2021/12/23 06:10:42;;;;;;;;;;;21.80;48.00;;;;;;5074052;28;948;-34
2021/12/23 06:13:09;;;;;;;;;;;21.80;48.00;;;;;;5075468;27;1007;-37
2021/12/23 06:15:35;;;;;;;;;;;21.80;47.90;;;;;;5075025;28;1979;-35
2021/12/23 06:18:02;;;;;;;;;;;21.80;48.10;;;;;;5074784;28;948;-37
2021/12/23 06:20:30;;;;;;;;;;;21.80;48.00;;;;;;5073569;28;900;-35
2021/12/23 06:22:57;;;;;;;;;;;21.90;48.00;;;;;;5074267;28;1117;-36
2021/12/23 06:25:24;;;;;;;;;;;21.90;48.00;;;;;;5073631;28;1015;-37
2021/12/23 06:27:50;;;;;;;;;;;21.90;48.00;;;;;;5073834;28;996;-37
2021/12/23 06:30:19;;;;;;;;;;;21.80;47.80;;;;;;5073119;28;988;-35
2021/12/23 06:32:46;;;;;;;;;;;21.80;47.90;;;;;;5073169;28;1003;-34
2021/12/23 06:35:13;;;;;;;;;;;21.80;47.90;;;;;;5072399;28;1902;-36
2021/12/23 06:37:41;;;;;;;;;;;21.70;47.90;;;;;;5073189;28;1110;-35
2021/12/23 06:40:09;;;;;;;;;;;21.80;48.10;;;;;;5074261;28;990;-36
2021/12/23 06:42:36;;;;;;;;;;;21.80;47.90;;;;;;5074965;28;999;-36
2021/12/23 06:45:03;;;;;;;;;;;21.80;47.90;;;;;;5073842;28;923;-36
2021/12/23 06:47:30;;;;;;;;;;;21.80;47.90;;;;;;5072718;28;1011;-33
2021/12/23 06:49:56;;;;;;;;;;;21.80;47.90;;;;;;5073644;28;1062;-34
2021/12/23 06:52:23;;;;;;;;;;;21.80;47.90;;;;;;5072991;28;984;-38
2021/12/23 06:54:53;;;;;;;;;;;21.90;48.00;;;;;;5072636;28;1894;-38
2021/12/23 06:57:20;;;;;;;;;;;22.00;48.10;;;;;;5073515;27;1047;-38
2021/12/23 06:59:47;;;;;;;;;;;22.00;48.00;;;;;;5074305;28;1003;-37
2021/12/23 07:02:14;;;;;;;;;;;22.00;48.00;;;;;;5073559;28;1007;-38
2021/12/23 07:04:43;;;;;;;;;;;22.00;48.00;;;;;;5074196;27;955;-37
2021/12/23 07:07:11;;;;;;;;;;;22.00;48.00;;;;;;5073947;28;972;-36
2021/12/23 07:09:38;;;;;;;;;;;22.00;48.00;;;;;;5074414;28;1035;-38
2021/12/23 07:12:06;;;;;;;;;;;22.10;48.00;;;;;;5074185;28;1018;-37
2021/12/23 07:14:33;;;;;;;;;;;22.00;48.00;;;;;;5074078;28;1984;-35
2021/12/23 07:17:00;;;;;;;;;;;22.00;48.20;;;;;;5074023;28;929;-37
2021/12/23 07:19:27;;;;;;;;;;;22.00;48.40;;;;;;5073930;28;984;-38
2021/12/23 07:21:54;;;;;;;;;;;21.90;48.30;;;;;;5073292;28;933;-38
2021/12/23 07:24:21;;;;;;;;;;;22.00;48.10;;;;;;5074326;28;949;-38
2021/12/23 07:26:48;;;;;;;;;;;21.90;48.20;;;;;;5074311;28;1003;-36
2021/12/23 07:29:16;;;;;;;;;;;22.00;48.30;;;;;;5073081;28;999;-36
2021/12/23 07:31:43;;;;;;;;;;;21.90;48.30;;;;;;5072607;28;1008;-35
2021/12/23 07:34:09;;;;;;;;;;;21.90;48.50;;;;;;5073673;28;987;-36
2021/12/23 07:36:36;;;;;;;;;;;21.90;48.50;;;;;;5073055;28;1983;-39
2021/12/23 07:39:06;;;;;;;;;;;21.80;48.40;;;;;;5074159;28;992;-37
2021/12/23 07:41:34;;;;;;;;;;;21.80;48.60;;;;;;5073515;28;992;-35
2021/12/23 07:44:04;;;;;;;;;;;21.80;48.50;;;;;;5072828;28;856;-37
2021/12/23 07:46:34;;;;;;;;;;;21.80;48.50;;;;;;5072871;27;999;-38
2021/12/23 07:49:01;;;;;;;;;;;21.80;48.50;;;;;;5073579;28;980;-37
2021/12/23 07:51:27;;;;;;;;;;;21.80;48.40;;;;;;5073458;28;992;-38
2021/12/23 07:53:54;;;;;;;;;;;21.90;48.20;;;;;;5073528;28;932;-38
2021/12/23 07:56:21;;;;;;;;;;;21.90;48.00;;;;;;5073204;28;1906;-34
2021/12/23 07:58:48;;;;;;;;;;;21.80;48.00;;;;;;5073686;28;1209;-37
2021/12/23 08:01:14;;;;;;;;;;;21.90;48.30;;;;;;5071827;28;1384;-39
2021/12/23 08:03:43;;;;;;;;;;;21.80;48.00;;;;;;5072729;28;940;-37
2021/12/23 08:06:09;;;;;;;;;;;21.80;48.20;;;;;;5072018;28;975;-38
2021/12/23 08:08:36;;;;;;;;;;;21.80;48.00;;;;;;5072335;28;968;-38
2021/12/23 08:11:03;;;;;;;;;;;21.80;48.10;;;;;;5071417;28;1018;-35
2021/12/23 08:13:30;;;;;;;;;;;21.80;48.00;;;;;;5073079;28;1058;-38
2021/12/23 08:15:58;;;;;;;;;;;21.80;47.90;;;;;;5075884;28;1911;-37
2021/12/23 08:18:25;;;;;;;;;;;21.80;47.90;;;;;;5075116;28;1018;-37
2021/12/23 08:20:53;;;;;;;;;;;21.90;48.00;;;;;;5075729;28;992;-37
2021/12/23 08:23:19;;;;;;;;;;;21.90;47.90;;;;;;5076345;27;935;-36
2021/12/23 08:25:46;;;;;;;;;;;21.90;47.80;;;;;;5076212;28;1420;-36
2021/12/23 08:28:13;;;;;;;;;;;21.80;47.90;;;;;;5075901;28;940;-36
2021/12/23 08:30:40;;;;;;;;;;;21.80;49.00;;;;;;5076056;28;931;-35
2021/12/23 08:33:08;;;;;;;;;;;21.80;47.90;;;;;;5074249;28;980;-35
2021/12/23 08:35:35;;;;;;;;;;;21.70;48.00;;;;;;5075917;28;1985;-37
2021/12/23 08:38:03;;;;;;;;;;;21.60;48.30;;;;;;5075323;28;968;-38
2021/12/23 08:40:31;;;;;;;;;;;21.70;48.20;;;;;;5075606;28;995;-36
2021/12/23 08:42:58;;;;;;;;;;;21.60;48.00;;;;;;5075733;28;991;-37
2021/12/23 08:45:25;;;;;;;;;;;21.60;48.20;;;;;;5076018;28;940;-41
2021/12/23 08:47:54;;;;;;;;;;;21.60;48.10;;;;;;5075712;28;1015;-37
2021/12/23 08:50:21;;;;;;;;;;;21.70;48.00;;;;;;5074545;27;996;-38
2021/12/23 08:52:48;;;;;;;;;;;21.60;48.00;;;;;;5075304;28;992;-38
2021/12/23 08:55:17;;;;;;;;;;;21.60;48.10;;;;;;5075096;27;1926;-38
2021/12/23 08:57:44;;;;;;;;;;;21.60;48.00;;;;;;5074692;28;1079;-35
2021/12/23 09:00:12;;;;;;;;;;;21.50;48.00;;;;;;5074856;27;975;-35
2021/12/23 09:02:39;;;;;;;;;;;21.50;48.20;;;;;;5075399;28;1010;-37
2021/12/23 09:05:07;;;;;;;;;;;21.60;48.10;;;;;;5075626;28;948;-38
2021/12/23 09:07:33;;;;;;;;;;;21.60;47.90;;;;;;5074956;28;968;-36
2021/12/23 09:10:00;;;;;;;;;;;21.60;47.80;;;;;;5075125;28;1125;-37
2021/12/23 09:12:28;;;;;;;;;;;21.60;47.90;;;;;;5074797;28;888;-38
2021/12/23 09:14:55;;;;;;;;;;;21.50;47.90;;;;;;5074776;28;1017;-36
2021/12/23 09:17:22;;;;;;;;;;;21.50;47.80;;;;;;5075082;28;1019;-36
2021/12/23 09:19:49;;;;;;;;;;;21.50;47.90;;;;;;5074946;28;992;-37
2021/12/23 09:22:16;;;;;;;;;;;21.50;47.80;;;;;;5074735;28;1030;-38
2021/12/23 09:24:45;;;;;;;;;;;21.50;47.80;;;;;;5074005;28;987;-40
2021/12/23 09:27:24;;;;;;;;;;;21.40;47.80;;;;;;5075575;28;956;-39
2021/12/23 09:32:51;;;;;;;;;;;21.40;47.80;;;;;;5073897;28;879;-38
2021/12/23 09:35:19;;;;;;;;;;;21.40;48.00;;;;;;5075495;28;1980;-37
2021/12/23 09:37:46;;;;;;;;;;;21.40;48.00;;;;;;5075588;28;1012;-38
2021/12/23 09:40:13;;;;;;;;;;;21.40;48.00;;;;;;5075417;27;852;-38
2021/12/23 09:42:42;;;;;;;;;;;21.40;48.00;;;;;;5075670;28;954;-38
2021/12/23 09:45:12;;;;;;;;;;;21.40;48.10;;;;;;5074712;28;1004;-37
2021/12/23 09:47:41;;;;;;;;;;;21.40;48.00;;;;;;5074511;28;1030;-37
2021/12/23 09:50:11;;;;;;;;;;;21.40;48.00;;;;;;5075181;28;876;-38
2021/12/23 09:52:41;;;;;;;;;;;21.40;47.80;;;;;;5074547;28;1046;-39
2021/12/23 09:55:08;;;;;;;;;;;21.40;47.90;;;;;;5078597;27;1986;-38
2021/12/23 09:57:35;;;;;;;;;;;21.40;47.80;;;;;;5074868;28;1037;-36
2021/12/23 10:00:02;;;;;;;;;;;21.40;47.80;;;;;;5074535;28;980;-36
2021/12/23 10:02:31;;;;;;;;;;;21.40;47.80;;;;;;5074862;28;901;-38
2021/12/23 10:04:57;;;;;;;;;;;21.40;47.70;;;;;;5074833;28;983;-38
2021/12/23 10:07:24;;;;;;;;;;;21.40;47.80;;;;;;5073616;28;915;-37
2021/12/23 10:10:00;;;;;;;;;;;21.40;47.70;;;;;;5074062;27;1183;-38
2021/12/23 10:31:50;;;;;;;;;;;21.30;47.70;;;;;;5074021;28;981;-40
2021/12/23 10:37:17;;;;;;;;;;;21.40;47.80;;;;;;5092358;27;1918;-39
2021/12/23 10:39:45;;;;;;;;;;;21.30;47.70;;;;;;5073915;27;868;-39
2021/12/23 10:42:14;;;;;;;;;;;21.30;47.70;;;;;;5073579;28;1011;-40
2021/12/23 10:44:41;;;;;;;;;;;21.30;47.70;;;;;;5074394;28;1943;-40
2021/12/23 10:47:11;;;;;;;;;;;21.30;47.70;;;;;;5072489;28;1047;-39
2021/12/23 10:49:43;;;;;;;;;;;21.30;47.70;;;;;;5074576;27;939;-40
2021/12/23 10:52:16;;;;;;;;;;;21.30;47.70;;;;;;5073907;27;1011;-40
2021/12/23 11:00:19;;;;;;;;;;;21.30;47.70;;;;;;5074143;28;635;-40
2021/12/23 11:03:05;;;;;;;;;;;21.30;47.80;;;;;;5073842;27;976;-40
2021/12/23 11:05:38;;;;;;;;;;;21.30;47.80;;;;;;5074194;27;940;-40
2021/12/23 11:08:14;;;;;;;;;;;21.30;47.70;;;;;;5072575;27;1023;-40
2021/12/23 11:11:02;;;;;;;;;;;21.20;47.80;;;;;;5063148;27;1699;-40
2021/12/23 11:38:15;;;;;;;;;;;21.20;47.70;;;;;;5052181;28;687;-40
2021/12/23 11:40:55;;;;;;;;;;;21.10;47.70;;;;;;5053204;28;973;-40
2021/12/23 11:43:47;;;;;;;;;;;21.20;47.80;;;;;;5052644;28;833;-38
2021/12/23 11:46:15;;;;;;;;;;;21.20;47.80;;;;;;5052320;28;997;-38
2021/12/23 11:48:44;;;;;;;;;;;21.10;47.80;;;;;;5054024;27;925;-39
2021/12/23 11:51:16;;;;;;;;;;;21.10;47.80;;;;;;5055994;28;992;-39
2021/12/23 11:53:48;;;;;;;;;;;21.10;47.90;;;;;;5054805;28;1143;-40
2021/12/23 11:56:16;;;;;;;;;;;21.10;47.90;;;;;;5055100;28;1914;-40
2021/12/23 11:58:45;;;;;;;;;;;21.10;47.80;;;;;;5055106;28;1109;-40
2021/12/23 12:01:17;;;;;;;;;;;21.10;47.70;;;;;;5055213;28;936;-39
2021/12/23 12:03:55;;;;;;;;;;;21.10;47.90;;;;;;5055225;27;2113;-39
2021/12/23 12:06:23;;;;;;;;;;;21.10;47.80;;;;;;5055526;28;970;-40
2021/12/23 12:08:54;;;;;;;;;;;21.10;47.70;;;;;;5056657;28;995;-40
2021/12/23 12:11:22;;;;;;;;;;;21.10;47.80;;;;;;5056639;28;1552;-39
2021/12/23 12:13:49;;;;;;;;;;;21.10;47.80;;;;;;5055375;28;1012;-40
2021/12/23 12:16:33;;;;;;;;;;;21.10;47.90;;;;;;5061543;28;1909;-39
2021/12/23 12:19:01;;;;;;;;;;;21.10;47.90;;;;;;5074956;28;1000;-39
2021/12/23 12:21:31;;;;;;;;;;;21.10;47.90;;;;;;5074646;28;1000;-39
2021/12/23 12:24:13;;;;;;;;;;;21.10;47.80;;;;;;5074544;28;877;-39
2021/12/23 12:26:53;;;;;;;;;;;21.10;47.90;;;;;;5073445;28;1126;-40
2021/12/23 12:29:25;;;;;;;;;;;21.10;48.00;;;;;;5074210;28;932;-40
2021/12/23 12:31:52;;;;;;;;;;;21.10;47.90;;;;;;5071605;28;1302;-39
2021/12/23 12:34:19;;;;;;;;;;;21.10;47.90;;;;;;5075302;28;992;-40
2021/12/23 12:36:48;;;;;;;;;;;21.10;47.80;;;;;;5075636;28;1925;-39
2021/12/23 12:39:21;;;;;;;;;;;21.10;47.70;;;;;;5075230;28;972;-39
2021/12/23 12:41:48;;;;;;;;;;;21.10;47.90;;;;;;5071836;27;939;-40
2021/12/23 12:44:22;;;;;;;;;;;21.10;47.70;;;;;;5075451;28;948;-44
2021/12/23 12:47:07;;;;;;;;;;;21.00;47.90;;;;;;5074718;28;948;-39
2021/12/23 12:49:37;;;;;;;;;;;21.00;47.90;;;;;;5074200;28;1006;-39
2021/12/23 12:52:10;;;;;;;;;;;21.10;47.90;;;;;;5071220;28;1039;-40
2021/12/23 12:54:42;;;;;;;;;;;21.10;47.90;;;;;;5073900;28;1012;-40
2021/12/23 12:57:09;;;;;;;;;;;21.00;47.80;;;;;;5074493;28;1909;-39
2021/12/23 12:59:37;;;;;;;;;;;21.00;48.00;;;;;;5074829;28;995;-39
2021/12/23 13:02:19;;;;;;;;;;;21.00;48.00;;;;;;5075525;28;1019;-39
2021/12/23 13:04:50;;;;;;;;;;;21.00;48.00;;;;;;5075553;28;1050;-37
2021/12/23 13:07:34;;;;;;;;;;;21.00;48.00;;;;;;5075359;28;968;-37
2021/12/23 13:10:09;;;;;;;;;;;21.00;47.90;;;;;;5075923;28;964;-38
2021/12/23 13:12:43;;;;;;;;;;;21.00;48.00;;;;;;5074312;28;954;-36
2021/12/23 13:15:18;;;;;;;;;;;21.00;47.90;;;;;;5076072;27;887;-38
2021/12/23 13:17:47;;;;;;;;;;;21.00;48.00;;;;;;5074296;28;1979;-38
2021/12/23 13:20:14;;;;;;;;;;;21.00;47.90;;;;;;5074994;28;1054;-36
2021/12/23 13:22:43;;;;;;;;;;;21.00;48.00;;;;;;5075715;28;987;-38
2021/12/23 13:25:11;;;;;;;;;;;21.00;48.00;;;;;;5074901;28;948;-38
2021/12/23 13:27:39;;;;;;;;;;;20.90;48.00;;;;;;5074976;28;1039;-37
2021/12/23 13:30:06;;;;;;;;;;;21.00;48.10;;;;;;5074276;28;976;-36
2021/12/23 13:32:33;;;;;;;;;;;20.90;48.00;;;;;;5074045;28;984;-40
2021/12/23 13:35:08;;;;;;;;;;;20.90;48.00;;;;;;5074622;28;1023;-40
2021/12/23 13:37:34;;;;;;;;;;;20.90;48.00;;;;;;5074389;28;1894;-40
2021/12/23 13:40:01;;;;;;;;;;;20.90;48.10;;;;;;5074253;28;933;-39
2021/12/23 13:42:29;;;;;;;;;;;20.90;48.00;;;;;;5073960;28;896;-39
2021/12/23 13:44:56;;;;;;;;;;;20.90;48.00;;;;;;5075056;28;996;-39
2021/12/23 13:47:25;;;;;;;;;;;20.90;48.00;;;;;;5074154;28;1009;-39
2021/12/23 13:49:53;;;;;;;;;;;20.90;48.00;;;;;;5073361;27;920;-40
2021/12/23 13:52:23;;;;;;;;;;;20.90;48.10;;;;;;5074311;28;1026;-40
2021/12/23 13:54:50;;;;;;;;;;;20.90;48.00;;;;;;5075141;28;975;-38
2021/12/23 13:57:19;;;;;;;;;;;20.90;48.10;;;;;;5074102;28;1977;-39
2021/12/23 13:59:47;;;;;;;;;;;20.90;48.10;;;;;;5073784;28;929;-40
2021/12/23 14:02:15;;;;;;;;;;;20.90;48.10;;;;;;5074021;28;1171;-40
2021/12/23 14:04:43;;;;;;;;;;;20.90;48.00;;;;;;5074951;27;1018;-39
2021/12/23 14:07:13;;;;;;;;;;;20.90;48.00;;;;;;5074183;28;1043;-42
2021/12/23 14:09:40;;;;;;;;;;;20.90;48.10;;;;;;5074594;28;996;-42
2021/12/23 14:12:08;;;;;;;;;;;20.90;48.10;;;;;;5073242;28;932;-36
2021/12/23 14:14:35;;;;;;;;;;;20.90;48.10;;;;;;5073819;28;996;-38
2021/12/23 14:17:03;;;;;;;;;;;20.90;48.10;;;;;;5072178;28;1898;-38
2021/12/23 14:19:47;;;;;;;;;;;20.90;48.00;;;;;;5074375;28;857;-37
2021/12/23 14:24:59;;;;;;;;;;;20.90;48.10;;;;;;5072698;28;673;-37
2021/12/23 14:27:25;;;;;;;;;;;20.80;48.10;;;;;;5072418;28;1018;-38
2021/12/23 14:30:00;;;;;;;;;;;20.80;48.10;;;;;;5073597;28;865;-39
2021/12/23 14:32:28;;;;;;;;;;;20.90;48.10;;;;;;5073675;28;1805;-40
2021/12/23 14:34:55;;;;;;;;;;;20.80;48.10;;;;;;5073387;28;991;-40
2021/12/23 14:37:22;;;;;;;;;;;20.80;48.10;;;;;;5073304;28;1969;-40
2021/12/23 14:39:48;;;;;;;;;;;20.80;48.10;;;;;;5073834;28;1015;-40
2021/12/23 14:42:16;;;;;;;;;;;20.80;48.00;;;;;;5073022;28;972;-40
2021/12/23 14:44:43;;;;;;;;;;;20.80;48.20;;;;;;5074399;28;948;-39
2021/12/23 14:47:13;;;;;;;;;;;20.80;48.20;;;;;;5072929;28;1026;-43
2021/12/23 14:52:35;;;;;;;;;;;20.80;48.10;;;;;;5073748;28;984;-40
2021/12/23 14:55:04;;;;;;;;;;;20.80;48.10;;;;;;5074325;28;924;-37
2021/12/23 14:57:31;;;;;;;;;;;20.80;48.20;;;;;;5072442;28;1973;-35
2021/12/23 15:00:00;;;;;;;;;;;20.80;48.10;;;;;;5073676;28;1868;-37
2021/12/23 15:02:27;;;;;;;;;;;20.80;48.10;;;;;;5073148;28;924;-37
2021/12/23 15:05:00;;;;;;;;;;;20.80;48.00;;;;;;5073659;28;944;-38
2021/12/23 15:07:27;;;;;;;;;;;20.80;48.10;;;;;;5073030;28;1129;-38
2021/12/23 15:09:57;;;;;;;;;;;20.80;48.10;;;;;;5071735;28;944;-36
2021/12/23 15:12:23;;;;;;;;;;;20.70;48.10;;;;;;5072966;28;939;-34
2021/12/23 15:14:51;;;;;;;;;;;20.70;48.00;;;;;;5073126;28;1054;-36
2021/12/23 15:17:23;;;;;;;;;;;20.70;48.10;;;;;;5072118;28;1902;-39
2021/12/23 15:19:52;;;;;;;;;;;20.70;48.20;;;;;;5072940;28;1007;-40
2021/12/23 15:22:21;;;;;;;;;;;20.70;48.10;;;;;;5072746;28;957;-40
2021/12/23 15:25:01;;;;;;;;;;;20.70;48.20;;;;;;5072043;28;1003;-38
2021/12/23 15:27:28;;;;;;;;;;;20.70;48.10;;;;;;5073069;27;910;-37
2021/12/23 15:29:59;;;;;;;;;;;20.70;48.20;;;;;;5072263;28;960;-38
2021/12/23 15:32:28;;;;;;;;;;;20.70;48.10;;;;;;5072839;28;923;-37
2021/12/23 15:35:00;;;;;;;;;;;20.70;48.10;;;;;;5073081;28;984;-36
2021/12/23 15:37:31;;;;;;;;;;;20.70;48.10;;;;;;5071775;28;1975;-37
2021/12/23 15:39:58;;;;;;;;;;;20.70;48.10;;;;;;5072452;27;1788;-37
2021/12/23 15:42:25;;;;;;;;;;;20.70;48.10;;;;;;5073074;28;1044;-38
2021/12/23 15:44:54;;;;;;;;;;;20.70;48.10;;;;;;5073104;28;1030;-36
2021/12/23 15:47:22;;;;;;;;;;;20.70;48.10;;;;;;5072825;28;996;-38
2021/12/23 15:49:50;;;;;;;;;;;20.70;47.90;;;;;;5072835;28;1292;-37